• Join FlightAware (Why Join?)
  • Login
  • US Flag 
06:23AM EST


 

Airport Tracker/Info


-or-


 

Live Flight TrackerFlight Track Log ✈ SKW4487 ✈ 13-May-2013 ✈ KSLC - KORD

Flight Track Log - Related Links

Times and Time Zones

All times are in EDT time to prevent confusion due to time zone crossing. See the SKW4487 flight status page for this flight to view local times or setup timezone preferences in your user account.

Time Position Orientation Groundspeed Altitude Reporting Facility
EDT Latitude Longitude Course Direction KTS MPH feet Rate Location/Type
11:08AM 40.7692 -111.9978 90° East 171 197 4,800  Level Salt Lake Center
11:09AM 40.7475 -112.0078 199° South 184 212 5,600 1,500 Climbing Salt Lake Center
11:10AM 40.7597 -112.0711 284° West 245 282 7,000 1,920 Climbing Salt Lake Center
11:11AM 40.9507 -112.2333 North  Level FlightAware Approximate
11:11AM 40.8289 -112.1589 316° Northwest 272 313 9,800  Level Salt Lake Center
11:12AM 41.0108 -112.1469 81° East  Level FlightAware Approximate
11:12AM 40.8731 -112.2017 324° Northwest 277 319 11,400  Level Salt Lake Center
11:13AM 41.0167 -111.9946 90° East  Level FlightAware Approximate
11:13AM 40.9333 -112.1461 35° Northeast 301 346 13,100  Level Salt Lake Center
11:14AM 41.0168 -111.8416 90° East  Level FlightAware Approximate
11:14AM 40.9553 -112.0106 78° East 319 367 15,500  Level Salt Lake Center
11:15AM 40.9781 -111.8931 76° East 333 383 17,500 1,740 Climbing Salt Lake Center
11:16AM 40.9989 -111.7778 76° East 341 392 19,100 1,680 Climbing Salt Lake Center
11:17AM 41.0261 -111.6303 76° East 352 405 21,000 1,620 Climbing Salt Lake Center
11:18AM 41.0386 -111.4972 83° East 365 420 22,500 1,440 Climbing Salt Lake Center
11:19AM 41.0508 -111.3592 83° East 379 436 24,000 1,440 Climbing Salt Lake Center
11:20AM 41.0622 -111.2192 84° East 383 441 25,500 1,440 Climbing Salt Lake Center
11:21AM 41.0758 -111.0775 83° East 389 448 27,000 1,440 Climbing Salt Lake Center
11:22AM 41.1097 -110.9419 72° East 388 447 28,500 1,260 Climbing Salt Lake Center
11:23AM 41.1489 -110.7797 72° East 392 451 29,700 960 Climbing Salt Lake Center
11:24AM 41.1828 -110.6458 71° East 399 459 30,500 780 Climbing Salt Lake Center
11:25AM 41.2244 -110.4861 71° East 409 471 31,400 780 Climbing Salt Lake Center
11:26AM 41.2597 -110.3461 71° East 415 478 32,200 780 Climbing Salt Lake Center
11:27AM 41.3025 -110.1803 71° East 423 487 33,100 780 Climbing Salt Lake Center
11:28AM 41.3383 -110.0369 72° East 426 490 33,900 720 Climbing Salt Lake Center
11:29AM 41.3744 -109.8942 71° East 425 489 34,600 480 Climbing Salt Lake Center
11:30AM 41.4161 -109.7278 71° East 424 488 35,000 180 Climbing Salt Lake Center
11:31AM 41.4511 -109.5861 72° East 421 484 35,000  Level Salt Lake Center
11:33AM 41.4922 -109.4217 71° East 418 481 35,000  Level Salt Lake Center
11:34AM 41.5272 -109.2783 72° East 420 483 35,000  Level Salt Lake Center
11:35AM 41.5697 -109.1078 72° East 425 489 35,000  Level Salt Lake Center
11:36AM 41.5992 -108.9594 75° East 426 490 35,000  Level Salt Lake Center
11:37AM 41.6197 -108.8111 79° East 425 489 35,000  Level Salt Lake Center
11:38AM 41.6431 -108.6386 80° East 422 486 35,000  Level Salt Lake Center
11:39AM 41.6636 -108.4892 80° East 426 490 35,000  Level Salt Lake Center
11:40AM 41.6875 -108.3142 80° East 430 495 35,000  Level Salt Lake Center
11:41AM 41.7078 -108.1653 80° East 428 493 35,000  Level Salt Lake Center
11:42AM 41.7253 -108.0381 80° East 431 496 35,000  Level Denver Center
11:43AM 41.7456 -107.8881 80° East 429 494 35,000  Level Denver Center
11:44AM 41.7697 -107.7139 79° East 427 491 35,000  Level Denver Center
11:45AM 41.7894 -107.5614 80° East 433 498 35,000  Level Denver Center
11:46AM 41.8117 -107.3875 80° East 426 490 35,000  Level Denver Center
11:47AM 41.8297 -107.2367 81° East 424 488 35,000  Level Denver Center
11:48AM 41.8531 -107.0631 80° East 424 488 35,000  Level Denver Center
11:49AM 41.8711 -106.9133 81° East 424 488 35,000  Level Denver Center
11:50AM 41.8936 -106.7372 80° East 428 493 35,000  Level Denver Center
11:51AM 41.9108 -106.5881 81° East 423 487 35,000  Level Denver Center
11:52AM 41.9314 -106.4175 81° East 424 488 35,000  Level Denver Center
11:53AM 41.9494 -106.2697 81° East 420 483 35,000  Level Denver Center
11:54AM 41.9703 -106.0967 81° East 418 481 35,000  Level Denver Center
11:55AM 41.9875 -105.9475 81° East 422 486 35,000  Level Denver Center
11:56AM 42.0053 -105.7983 81° East 423 487 35,000  Level Denver Center
11:57AM 42.0231 -105.6242 82° East 422 486 35,000  Level Denver Center
11:58AM 42.0414 -105.4747 81° East 423 487 35,000  Level Denver Center
11:59AM 42.0589 -105.3006 82° East 423 487 35,000  Level Denver Center
12:00PM 42.0747 -105.1511 82° East 423 487 35,000  Level Denver Center
12:01PM 42.0914 -104.9731 83° East 430 495 35,000  Level Denver Center
12:02PM 42.1028 -104.8236 84° East 424 488 35,000  Level Denver Center
12:03PM 42.1194 -104.6489 83° East 423 487 35,000  Level Denver Center
12:04PM 42.1319 -104.4975 84° East 427 491 35,000  Level Denver Center
12:05PM 42.1461 -104.3214 84° East 428 493 35,000  Level Denver Center
12:06PM 42.1572 -104.1728 84° East 422 486 35,000  Level Denver Center
12:07PM 42.1717 -103.9958 84° East 427 491 35,000  Level Denver Center
12:08PM 42.1839 -103.8450 84° East 427 491 35,000  Level Denver Center
12:09PM 42.1986 -103.6689 84° East 425 489 35,000  Level Denver Center
12:10PM 42.2103 -103.5172 84° East 426 490 35,000  Level Denver Center
12:12PM 42.2228 -103.3414 84° East 425 489 35,000  Level Denver Center
12:13PM 42.2375 -103.1381 84° East 427 491 35,000  Level Denver Center
12:14PM 42.2497 -102.9853 84° East 428 493 35,000  Level Denver Center
12:15PM 42.2619 -102.8067 85° East 428 493 35,000  Level Denver Center
12:16PM 42.2717 -102.6519 85° East 431 496 35,000  Level Denver Center
12:17PM 42.2825 -102.4983 85° East 432 497 35,000  Level Denver Center
12:18PM 42.2944 -102.3178 85° East 431 496 35,000  Level Denver Center
12:19PM 42.3042 -102.1611 85° East 435 501 35,000  Level Denver Center
12:20PM 42.3144 -101.9822 85° East 429 494 35,000  Level Denver Center
12:21PM 42.3261 -101.8153 85° East 435 501 35,000  Level Denver Center
12:22PM 42.3350 -101.6603 86° East 433 498 35,000  Level Denver Center
12:23PM 42.3458 -101.4797 85° East 431 496 35,000  Level Denver Center
12:24PM 42.3547 -101.3244 86° East 432 497 35,000  Level Denver Center
12:25PM 42.3636 -101.1483 86° East 423 487 35,000  Level Denver Center
12:26PM 42.3711 -100.9956 86° East 424 488 35,000  Level Denver Center
12:27PM 42.3808 -100.8183 86° East 423 487 35,000  Level Denver Center
12:28PM 42.3883 -100.6669 86° East 422 486 35,000  Level Denver Center
12:29PM 42.3969 -100.4900 86° East 422 486 35,000  Level Denver Center
12:30PM 42.4036 -100.3381 87° East 422 486 35,000  Level Denver Center
12:31PM 42.4117 -100.1867 86° East 421 484 35,000  Level Denver Center
12:32PM 42.4167 -100.0567 87° East 420 483 35,000  Level Minneapolis Center
12:32PM 42.4189 -100.0094 86° East 422 486 35,000  Level Denver Center
12:33PM 42.4258 -99.8611 86° East 416 479 35,000  Level Denver Center
12:34PM 42.4300 -99.7428 87° East 417 480 35,000  Level Minneapolis Center
12:35PM 42.4372 -99.5842 86° East 419 482 35,000  Level Minneapolis Center
12:35PM 42.4397 -99.5194 87° East 419 482 35,000  Level Denver Center
12:37PM 42.4450 -99.3611 87° East 419 482 35,000  Level Denver Center
12:37PM 42.4500 -99.2686 86° East 418 481 35,000  Level Minneapolis Center
12:38PM 42.4558 -99.1089 87° East 421 484 35,100  Climbing Minneapolis Center
12:39PM 42.4625 -98.9203 87° East 419 482 35,100  Level Minneapolis Center
12:40PM 42.4683 -98.7614 87° East 420 483 35,100  Level Minneapolis Center
12:41PM 42.4742 -98.6011 87° East 424 488 35,100  Level Minneapolis Center
12:42PM 42.4831 -98.4403 86° East 427 491 35,100  Level Minneapolis Center
12:43PM 42.4917 -98.2783 86° East 429 494 35,100  Level Minneapolis Center
12:44PM 42.4994 -98.1167 86° East 430 495 35,100  Level Minneapolis Center
12:45PM 42.5061 -97.9536 87° East 433 498 35,100 -60 Level Minneapolis Center
12:47PM 42.5131 -97.7822 87° East 433 498 35,000 -60 Descending Minneapolis Center
12:48PM 42.5211 -97.6203 86° East 431 496 35,000  Level Minneapolis Center
12:49PM 42.5286 -97.4236 87° East 434 499 35,000  Level Minneapolis Center
12:50PM 42.5350 -97.2628 87° East 428 493 35,000  Level Minneapolis Center
12:51PM 42.5417 -97.1017 87° East 429 494 35,000  Level Minneapolis Center
12:52PM 42.5467 -96.9411 88° East 426 490 35,000  Level Minneapolis Center
12:53PM 42.5531 -96.7797 87° East 427 491 35,000  Level Minneapolis Center
12:54PM 42.5578 -96.6203 88° East 424 488 35,000  Level Minneapolis Center
12:55PM 42.5636 -96.4592 87° East 426 490 35,000  Level Minneapolis Center
12:56PM 42.5692 -96.2681 88° East 424 488 35,000  Level Minneapolis Center
12:57PM 42.5736 -96.1072 88° East 424 488 35,000  Level Minneapolis Center
12:58PM 42.5786 -95.9481 88° East 423 487 35,000  Level Minneapolis Center
12:59PM 42.5825 -95.7881 88° East 423 487 35,000  Level Minneapolis Center
01:00PM 42.5869 -95.6275 88° East 425 489 35,000  Level Minneapolis Center
01:01PM 42.5894 -95.4672 89° East 425 489 35,000  Level Minneapolis Center
01:02PM 42.5933 -95.3064 88° East 425 489 35,000  Level Minneapolis Center
01:03PM 42.5983 -95.1144 88° East 424 488 35,000  Level Minneapolis Center
01:04PM 42.6008 -94.9856 88° East 426 490 35,000  Level Minneapolis Center
01:05PM 42.6033 -94.7925 89° East 426 490 35,000  Level Minneapolis Center
01:06PM 42.6064 -94.6314 88° East 427 491 35,000  Level Minneapolis Center
01:07PM 42.6103 -94.4575 88° East 427 491 35,000  Level Minneapolis Center
01:08PM 42.6125 -94.2981 89° East 427 491 35,000  Level Minneapolis Center
01:09PM 42.6050 -94.1383 94° East 428 493 35,000  Level Minneapolis Center
01:11PM 42.5942 -93.9442 94° East 433 498 35,000  Level Minneapolis Center
01:12PM 42.5856 -93.7522 93° East 430 495 35,000  Level Minneapolis Center
01:13PM 42.5783 -93.5911 93° East 431 496 35,000  Level Minneapolis Center
01:14PM 42.5706 -93.4317 94° East 429 494 35,000  Level Minneapolis Center
01:15PM 42.5617 -93.2703 94° East 432 497 35,000  Level Minneapolis Center
01:16PM 42.5544 -93.1097 93° East 431 496 35,000  Level Minneapolis Center
01:17PM 42.5439 -92.9181 94° East 430 495 35,000  Level Minneapolis Center
01:18PM 42.5342 -92.7575 95° East 429 494 35,000  Level Minneapolis Center
01:19PM 42.5253 -92.5967 94° East 431 496 35,000  Level Minneapolis Center
01:20PM 42.5164 -92.4369 94° East 432 497 35,000  Level Minneapolis Center
01:21PM 42.5044 -92.2436 95° East 434 499 35,000  Level Minneapolis Center
01:22PM 42.4931 -92.0503 95° East 432 497 35,000  Level Chicago Center
01:23PM 42.4831 -91.8908 95° East 433 498 35,000  Level Chicago Center
01:24PM 42.4722 -91.7328 95° East 432 497 35,000  Level Chicago Center
01:25PM 42.4619 -91.5744 95° East 431 496 35,000  Level Chicago Center
01:26PM 42.4497 -91.3842 95° East 431 496 35,000  Level Chicago Center
01:27PM 42.4383 -91.2261 96° East 429 494 35,000 -360 Level Chicago Center
01:28PM 42.4275 -91.0669 95° East 431 496 34,300 -1,140 Descending Chicago Center
01:29PM 42.4144 -90.9078 96° East 431 496 32,700 -1,620 Descending Chicago Center
01:30PM 42.4044 -90.7486 95° East 430 495 31,000 -1,800 Descending Chicago Center
01:31PM 42.4169 -90.5592 85° East 425 489 29,000 -1,860 Descending Chicago Center
01:32PM 42.4325 -90.3969 83° East 439 505 27,200 -1,800 Descending Chicago Center
01:33PM 42.4444 -90.2239 85° East 467 537 25,400 -1,800 Descending Chicago Center
01:34PM 42.4378 -90.0519 93° East 467 537 23,600 -1,800 Descending Chicago Center
01:35PM 42.4306 -89.8667 93° East 454 522 21,700 -1,260 Descending Chicago Center
01:37PM 42.4239 -89.7022 93° East 441 507 21,000 -540 Descending Chicago Center
01:38PM 42.4169 -89.5094 93° East 441 507 20,600 -720 Descending Chicago Center
01:39PM 42.4103 -89.3389 93° East 454 522 19,600 -1,080 Descending Chicago Center
01:40PM 42.4042 -89.1778 93° East 433 498 18,400 -1,440 Descending Chicago Center
01:41PM 42.3978 -89.0208 93° East 421 484 16,700 -1,920 Descending Chicago Center
01:42PM 42.3906 -88.8694 94° East 407 468 14,500 -2,280 Descending Chicago Center
01:43PM 42.3833 -88.6908 93° East 408 470 12,100 -2,160 Descending Chicago Center
01:44PM 42.3783 -88.5442 93° East 397 457 10,100 -1,020 Descending Chicago Center
01:45PM 42.3500 -88.4189 107° East 370 426 10,000 -60 Descending Chicago Center
01:46PM 42.2878 -88.2992 125° Southeast 370 426 10,000 -60 Level Chicago Center
01:47PM 42.2225 -88.1911 129° Southeast 374 430 9,900 -540 Descending Chicago Center
01:48PM 42.1625 -88.1086 134° Southeast 315 362 8,900 -1,200 Descending Chicago Center
01:49PM 42.1000 -88.0167 132° Southeast 301 346 7,500 -960 Descending Chicago TRACON
01:50PM 42.1000 -87.9167 90° East 266 306 7,000 -300 Descending Chicago TRACON
01:51PM 42.0833 -87.8333 105° East 246 283 6,900 -600 Descending Chicago TRACON
01:52PM 42.1000 -87.7333 77° East 244 281 5,800 -1,080 Descending Chicago TRACON
01:53PM 42.0500 -87.7000 154° Southeast 231 266 4,800 -1,020 Descending Chicago TRACON